Time;durP1;ratioP1;P1;durP2;ratioP2;P2;SDS_P1;SDS_P2;PMS_P1;PMS_P2;Temp;Humidity;BMP_temperature;BMP_pressure;BME280_temperature;BME280_humidity;BME280_pressure;Samples;Min_cycle;Max_cycle;Signal;HPM_P1;HPM_P2
2022/08/18 06:22:21;;;;;;;58.50;43.20;;;;;;;;;;11923832;23;20615047;-85
2022/08/18 09:30:45;;;;;;;22.88;20.58;;;;;;;;;;12752776;23;20029;-85
2022/08/18 09:35:54;;;;;;;23.70;20.83;;;;;;;;;;12724670;23;20115;-86
2022/08/18 09:46:37;;;;;;;19.98;17.98;;;;;;;;;;12749451;23;20014;-85
2022/08/18 09:51:39;;;;;;;23.08;20.63;;;;;;;;;;12722371;23;20017;-86
2022/08/18 09:56:49;;;;;;;23.42;17.27;;;;;;;;;;12723007;23;20032;-86
2022/08/18 10:01:50;;;;;;;16.50;14.80;;;;;;;;;;12722186;23;20005;-86
2022/08/18 10:06:52;;;;;;;15.52;14.02;;;;;;;;;;12722049;23;20007;-85
2022/08/18 10:11:59;;;;;;;18.88;16.95;;;;;;;;;;12725388;23;20002;-85
2022/08/18 10:17:22;;;;;;;16.15;14.65;;;;;;;;;;12753326;23;20073;-86
2022/08/18 10:28:04;;;;;;;21.35;19.23;;;;;;;;;;12761217;23;20022;-86
2022/08/18 10:33:06;;;;;;;16.10;12.55;;;;;;;;;;12733147;23;20021;-84
2022/08/18 10:38:16;;;;;;;11.65;10.48;;;;;;;;;;12729020;23;20001;-85
2022/08/18 10:43:18;;;;;;;10.68;9.60;;;;;;;;;;12728582;23;20009;-84
2022/08/18 10:48:24;;;;;;;11.77;9.02;;;;;;;;;;12724650;23;20033;-87
2022/08/18 10:53:44;;;;;;;10.02;9.00;;;;;;;;;;12724337;23;20001;-86
2022/08/18 10:58:54;;;;;;;8.93;8.13;;;;;;;;;;12731553;23;20006;-83
2022/08/18 11:03:55;;;;;;;10.73;9.20;;;;;;;;;;12723998;23;20005;-85
2022/08/18 11:08:59;;;;;;;8.15;6.72;;;;;;;;;;12724459;23;20350;-83
2022/08/18 11:14:20;;;;;;;9.80;8.80;;;;;;;;;;12725108;23;20002;-83
2022/08/18 11:19:21;;;;;;;12.80;10.88;;;;;;;;;;12727335;23;20016;-85
2022/08/18 11:24:34;;;;;;;7.40;6.80;;;;;;;;;;12725021;23;20036;-85
2022/08/18 11:29:36;;;;;;;9.85;8.95;;;;;;;;;;12752044;23;20002;-85
2022/08/18 11:34:43;;;;;;;8.18;7.18;;;;;;;;;;12728721;23;20005;-84
2022/08/18 11:39:48;;;;;;;11.25;10.25;;;;;;;;;;12727691;23;20081;-85
2022/08/18 11:44:51;;;;;;;8.52;7.75;;;;;;;;;;12728582;23;20005;-84
2022/08/18 11:49:55;;;;;;;7.20;6.50;;;;;;;;;;12784584;23;20002;-84
2022/08/18 11:55:01;;;;;;;11.32;9.38;;;;;;;;;;12761246;23;20470;-85
2022/08/18 12:00:23;;;;;;;13.90;7.22;;;;;;;;;;12745239;23;20092;-87
2022/08/18 12:05:24;;;;;;;8.13;7.30;;;;;;;;;;12752740;23;20037;-85
2022/08/18 12:10:29;;;;;;;9.80;7.50;;;;;;;;;;12745694;23;20029;-85
2022/08/18 12:15:31;;;;;;;7.90;7.20;;;;;;;;;;12734516;23;20080;-84
2022/08/18 12:26:14;;;;;;;8.45;7.75;;;;;;;;;;12758216;23;20010;-85
2022/08/18 12:31:16;;;;;;;12.15;11.05;;;;;;;;;;12720406;23;20017;-83
2022/08/18 12:36:17;;;;;;;9.57;8.77;;;;;;;;;;12724868;23;20002;-85
2022/08/18 12:41:18;;;;;;;10.05;9.18;;;;;;;;;;12727263;23;20016;-85
2022/08/18 12:46:20;;;;;;;14.40;13.10;;;;;;;;;;12732793;23;20009;-85
2022/08/18 12:51:21;;;;;;;12.65;11.57;;;;;;;;;;12752754;23;20028;-86
2022/08/18 12:56:29;;;;;;;11.88;10.77;;;;;;;;;;12759862;23;20001;-85
2022/08/18 13:01:30;;;;;;;12.35;11.18;;;;;;;;;;12732980;23;20009;-85
2022/08/18 13:06:33;;;;;;;11.50;10.50;;;;;;;;;;12735791;23;20006;-85
2022/08/18 13:11:34;;;;;;;12.23;10.70;;;;;;;;;;12739895;23;20006;-85
2022/08/18 13:16:48;;;;;;;11.90;10.80;;;;;;;;;;12737966;23;20001;-85
2022/08/18 13:21:49;;;;;;;9.77;8.88;;;;;;;;;;12732991;23;20005;-85
2022/08/18 13:26:55;;;;;;;9.98;8.52;;;;;;;;;;12735834;23;20013;-85
2022/08/18 13:31:57;;;;;;;11.07;10.07;;;;;;;;;;12736545;23;20299;-85
2022/08/18 13:36:58;;;;;;;9.07;8.05;;;;;;;;;;12728540;23;20016;-85
2022/08/18 13:42:00;;;;;;;9.20;8.30;;;;;;;;;;12732137;23;20008;-83
2022/08/18 13:47:10;;;;;;;8.75;7.90;;;;;;;;;;12742099;23;20006;-82
2022/08/18 13:52:12;;;;;;;7.75;7.05;;;;;;;;;;12721729;23;20437;-83
2022/08/18 13:57:13;;;;;;;7.53;6.80;;;;;;;;;;12733252;23;20376;-82
2022/08/18 14:02:14;;;;;;;7.95;7.13;;;;;;;;;;12730135;23;19997;-84
2022/08/18 14:07:16;;;;;;;20.85;17.55;;;;;;;;;;12754776;23;20002;-84
2022/08/18 14:12:23;;;;;;;8.32;7.53;;;;;;;;;;12725659;23;20302;-85
2022/08/18 14:17:24;;;;;;;7.40;6.43;;;;;;;;;;12728140;23;20156;-83
2022/08/18 14:27:45;;;;;;;5.40;4.90;;;;;;;;;;12762352;23;20010;-84
2022/08/18 14:32:46;;;;;;;5.90;5.30;;;;;;;;;;12728171;23;20386;-85
2022/08/18 14:37:48;;;;;;;6.93;5.95;;;;;;;;;;12727517;23;20039;-84
2022/08/18 14:42:49;;;;;;;6.75;6.03;;;;;;;;;;12725213;23;20053;-85
2022/08/18 14:47:52;;;;;;;6.53;5.97;;;;;;;;;;12726937;23;20005;-84
2022/08/18 14:52:53;;;;;;;6.70;5.45;;;;;;;;;;12728032;23;20009;-84
2022/08/18 14:57:54;;;;;;;7.38;5.57;;;;;;;;;;12727983;23;20062;-84
2022/08/18 15:02:56;;;;;;;5.88;5.32;;;;;;;;;;12727114;23;20119;-84
2022/08/18 15:07:57;;;;;;;10.38;6.30;;;;;;;;;;12724973;23;20015;-84
2022/08/18 15:12:59;;;;;;;7.32;5.90;;;;;;;;;;12723475;23;20009;-84
2022/08/18 15:18:00;;;;;;;7.60;6.97;;;;;;;;;;12721379;23;20048;-83
2022/08/18 15:28:25;;;;;;;7.07;6.35;;;;;;;;;;12751932;23;20013;-86
2022/08/18 15:33:27;;;;;;;6.15;5.65;;;;;;;;;;12726837;23;20013;-86
2022/08/18 15:38:29;;;;;;;5.60;5.18;;;;;;;;;;12725238;23;20005;-86
2022/08/18 15:43:31;;;;;;;5.90;5.40;;;;;;;;;;12752019;23;20418;-85
2022/08/18 15:48:32;;;;;;;5.80;5.20;;;;;;;;;;12728145;23;20009;-85
2022/08/18 15:53:33;;;;;;;7.60;6.80;;;;;;;;;;12726433;23;20382;-85
2022/08/18 15:58:34;;;;;;;7.20;5.65;;;;;;;;;;12725370;23;20069;-84
2022/08/18 16:03:36;;;;;;;5.82;5.32;;;;;;;;;;12736559;23;20438;-85
2022/08/18 16:08:38;;;;;;;5.15;4.65;;;;;;;;;;12746838;23;20009;-85
2022/08/18 16:13:39;;;;;;;5.65;5.13;;;;;;;;;;12728168;23;20006;-84
2022/08/18 16:18:40;;;;;;;5.93;5.03;;;;;;;;;;12748729;23;20418;-85
2022/08/18 16:23:43;;;;;;;5.22;4.20;;;;;;;;;;12724419;23;20020;-86
2022/08/18 16:28:45;;;;;;;5.93;4.55;;;;;;;;;;12722066;23;20385;-80
2022/08/18 16:33:49;;;;;;;5.00;4.55;;;;;;;;;;12719252;23;20028;-83
2022/08/18 16:39:00;;;;;;;6.45;4.80;;;;;;;;;;12694960;23;20013;-82
2022/08/18 16:44:18;;;;;;;5.22;4.07;;;;;;;;;;12743747;23;20002;-82
2022/08/18 16:49:19;;;;;;;5.18;4.60;;;;;;;;;;12717054;23;20012;-82
2022/08/18 16:54:27;;;;;;;8.57;7.78;;;;;;;;;;12717114;23;20009;-83
2022/08/18 17:05:02;;;;;;;5.30;4.70;;;;;;;;;;12743458;23;20450;-82
2022/08/18 17:10:16;;;;;;;4.85;4.10;;;;;;;;;;12711692;23;20016;-83
2022/08/18 17:15:33;;;;;;;5.05;4.55;;;;;;;;;;12716938;23;19997;-82
2022/08/18 17:20:36;;;;;;;4.25;3.85;;;;;;;;;;12715145;23;20010;-82
2022/08/18 17:25:41;;;;;;;4.07;3.75;;;;;;;;;;12718018;23;20002;-83
2022/08/18 17:30:50;;;;;;;4.30;3.90;;;;;;;;;;12717217;23;20387;-83
2022/08/18 17:36:09;;;;;;;4.80;4.18;;;;;;;;;;12720320;23;20009;-82
2022/08/18 17:41:24;;;;;;;4.30;3.90;;;;;;;;;;12724054;23;20001;-83
2022/08/18 17:46:33;;;;;;;5.45;4.20;;;;;;;;;;12723861;23;20084;-82
2022/08/18 17:51:43;;;;;;;5.40;4.22;;;;;;;;;;12726280;23;20001;-83
2022/08/18 17:56:52;;;;;;;4.97;3.67;;;;;;;;;;12743895;23;20040;-82
2022/08/18 18:02:15;;;;;;;5.18;4.00;;;;;;;;;;12720532;23;20010;-82
2022/08/18 18:07:24;;;;;;;6.55;4.25;;;;;;;;;;12743226;23;20430;-81
2022/08/18 18:12:28;;;;;;;4.20;3.80;;;;;;;;;;12721860;23;20005;-82
2022/08/18 18:17:36;;;;;;;4.85;3.50;;;;;;;;;;12741392;23;20005;-81
